createdAt,value
2018-03-24T00:01:04.381Z,87.87
2018-03-24T00:03:34.574Z,87.95
2018-03-24T00:06:02.970Z,88.00
2018-03-24T00:08:33.111Z,87.79
2018-03-24T00:11:02.363Z,87.85
2018-03-24T00:13:31.683Z,88.01
2018-03-24T00:16:01.062Z,88.52
2018-03-24T00:18:29.462Z,88.47
2018-03-24T00:20:58.359Z,88.74
2018-03-24T00:23:28.559Z,89.41
2018-03-24T00:25:59.502Z,88.94
2018-03-24T00:28:28.194Z,88.61
2018-03-24T00:30:56.550Z,88.51
2018-03-24T00:33:26.062Z,88.48
2018-03-24T00:35:55.830Z,89.07
2018-03-24T00:38:26.016Z,89.16
2018-03-24T00:40:54.445Z,89.14
2018-03-24T00:43:24.282Z,89.58
2018-03-24T00:45:52.683Z,90.60
2018-03-24T00:48:22.606Z,90.14
2018-03-24T00:50:51.800Z,89.91
2018-03-24T00:53:20.763Z,89.69
2018-03-24T00:55:50.098Z,89.69
2018-03-24T00:58:19.378Z,89.42
2018-03-24T01:00:48.631Z,89.52
2018-03-24T01:03:17.986Z,89.29
2018-03-24T01:05:47.186Z,89.25
2018-03-24T01:08:16.924Z,89.27
2018-03-24T01:10:46.067Z,89.40
2018-03-24T01:13:15.340Z,89.45
2018-03-24T01:15:44.116Z,89.34
2018-03-24T01:18:13.452Z,89.48
2018-03-24T01:20:41.900Z,89.55
2018-03-24T01:23:11.572Z,89.33
2018-03-24T01:25:40.043Z,89.50
2018-03-24T01:28:08.715Z,89.67
2018-03-24T01:30:38.015Z,89.09
2018-03-24T01:33:07.403Z,88.62
2018-03-24T01:35:36.626Z,88.77
2018-03-24T01:38:05.178Z,88.87
2018-03-24T01:40:35.252Z,89.02
2018-03-24T01:43:05.457Z,88.72
2018-03-24T01:45:34.864Z,88.52
2018-03-24T01:48:03.297Z,88.79
2018-03-24T01:50:32.458Z,88.08
2018-03-24T01:53:00.896Z,88.19
2018-03-24T01:55:30.728Z,88.18
2018-03-24T01:57:59.147Z,87.90
2018-03-24T02:00:30.179Z,87.72
2018-03-24T02:02:58.614Z,87.70
2018-03-24T02:05:29.739Z,87.86
2018-03-24T02:07:58.151Z,88.07
2018-03-24T02:10:27.630Z,88.02
2018-03-24T02:12:57.459Z,87.82
2018-03-24T02:15:27.562Z,87.70
2018-03-24T02:17:57.310Z,87.61
2018-03-24T02:20:27.687Z,87.53
2018-03-24T02:22:56.815Z,87.66
2018-03-24T02:25:28.430Z,87.61
2018-03-24T02:27:59.380Z,87.54
2018-03-24T02:30:28.515Z,87.36
2018-03-24T02:32:58.390Z,87.13
2018-03-24T02:35:26.788Z,87.14
2018-03-24T02:37:57.604Z,87.31
2018-03-24T02:40:26.500Z,87.10
2018-03-24T02:42:55.795Z,87.32
2018-03-24T02:45:24.179Z,87.37
2018-03-24T02:47:52.589Z,87.28
2018-03-24T02:50:20.931Z,87.28
2018-03-24T02:52:50.473Z,87.00
2018-03-24T02:55:18.805Z,86.84
2018-03-24T02:57:48.563Z,86.58
2018-03-24T03:00:17.959Z,86.72
2018-03-24T03:02:47.893Z,86.86
2018-03-24T03:05:17.124Z,86.80
2018-03-24T03:07:46.597Z,87.44
2018-03-24T03:10:15.849Z,87.81
2018-03-24T03:12:45.055Z,87.94
2018-03-24T03:15:13.649Z,88.16
2018-03-24T03:17:42.885Z,88.07
2018-03-24T03:20:11.249Z,87.99
2018-03-24T03:22:40.733Z,87.83
2018-03-24T03:25:09.083Z,87.40
2018-03-24T03:27:37.905Z,87.40
2018-03-24T03:33:14.615Z,86.46
2018-03-24T03:35:43.000Z,86.40
2018-03-24T03:38:11.442Z,86.60
2018-03-24T03:40:41.934Z,86.45
2018-03-24T03:43:11.263Z,86.44
2018-03-24T03:45:41.366Z,86.16
2018-03-24T03:48:10.502Z,86.61
2018-03-24T03:50:38.853Z,86.86
2018-03-24T03:53:07.258Z,86.99
2018-03-24T03:55:37.035Z,87.61
2018-03-24T03:58:05.641Z,87.63
2018-03-24T04:00:34.902Z,87.25
2018-03-24T04:03:05.071Z,86.88
2018-03-24T04:05:35.217Z,86.53
2018-03-24T04:08:04.363Z,86.45
2018-03-24T04:10:32.746Z,86.49
2018-03-24T04:13:01.112Z,86.71
2018-03-24T04:15:29.743Z,86.58
2018-03-24T04:17:58.563Z,87.21
2018-03-24T04:20:27.723Z,87.22
2018-03-24T04:22:56.091Z,87.17
2018-03-24T04:25:24.772Z,87.09
2018-03-24T04:27:53.159Z,87.24
2018-03-24T04:30:22.561Z,87.43
2018-03-24T04:32:51.782Z,87.45
2018-03-24T04:35:21.013Z,87.08
2018-03-24T04:37:50.311Z,86.86
2018-03-24T04:40:19.399Z,87.02
2018-03-24T04:42:48.507Z,87.24
2018-03-24T04:45:16.934Z,87.34
2018-03-24T04:47:46.294Z,87.33
2018-03-24T04:50:16.929Z,87.33
2018-03-24T04:52:45.324Z,86.90
2018-03-24T04:55:15.464Z,87.52
2018-03-24T04:57:44.841Z,86.47
2018-03-24T05:00:13.347Z,86.34
2018-03-24T05:02:41.692Z,86.53
2018-03-24T05:05:10.355Z,87.05
2018-03-24T05:07:39.880Z,87.87
2018-03-24T05:10:08.298Z,88.17
2018-03-24T05:12:37.483Z,87.95
2018-03-24T05:15:06.555Z,87.75
2018-03-24T05:17:35.167Z,87.27
2018-03-24T05:20:03.962Z,86.55
2018-03-24T05:22:33.326Z,86.39
2018-03-24T05:25:02.008Z,86.76
2018-03-24T05:27:32.434Z,87.25
2018-03-24T05:30:01.215Z,88.11
2018-03-24T05:32:29.555Z,87.66
2018-03-24T05:34:57.976Z,87.39
2018-03-24T05:37:28.514Z,87.16
2018-03-24T05:39:57.179Z,86.94
2018-03-24T05:42:27.221Z,86.99
2018-03-24T05:44:55.639Z,87.17
2018-03-24T05:47:26.760Z,87.16
2018-03-24T05:49:56.403Z,87.26
2018-03-24T05:52:24.747Z,87.21
2018-03-24T05:54:53.733Z,87.29
2018-03-24T05:57:22.360Z,87.54
2018-03-24T05:59:51.020Z,87.74
2018-03-24T06:02:19.673Z,87.93
2018-03-24T06:04:49.502Z,87.57
2018-03-24T06:07:18.767Z,87.20
2018-03-24T06:09:47.412Z,86.31
2018-03-24T06:12:16.081Z,86.17
2018-03-24T06:14:45.022Z,86.60
2018-03-24T06:17:13.761Z,86.81
2018-03-24T06:19:44.888Z,86.81
2018-03-24T06:22:13.324Z,86.82
2018-03-24T06:24:42.074Z,85.85
2018-03-24T06:27:10.751Z,86.18
2018-03-24T06:29:40.777Z,86.24
2018-03-24T06:32:09.872Z,85.89
2018-03-24T06:34:39.251Z,85.79
2018-03-24T06:37:09.396Z,85.95
2018-03-24T06:39:38.787Z,86.02
2018-03-24T06:42:07.202Z,86.21
2018-03-24T06:44:36.706Z,86.24
2018-03-24T06:47:05.092Z,86.14
2018-03-24T06:49:34.760Z,85.87
2018-03-24T06:52:03.889Z,85.70
2018-03-24T06:54:32.946Z,85.79
2018-03-24T06:57:02.258Z,85.50
2018-03-24T06:59:30.684Z,85.48
2018-03-24T07:01:59.973Z,85.63
2018-03-24T07:04:28.387Z,85.74
2018-03-24T07:06:57.828Z,85.71
2018-03-24T07:09:27.008Z,85.82
2018-03-24T07:11:55.379Z,85.69
2018-03-24T07:14:24.072Z,85.58
2018-03-24T07:16:53.317Z,85.60
2018-03-24T07:19:22.462Z,85.47
2018-03-24T07:21:52.088Z,85.41
2018-03-24T07:24:21.069Z,85.59
2018-03-24T07:26:49.607Z,85.82
2018-03-24T07:29:18.455Z,85.85
2018-03-24T07:31:49.893Z,85.56
2018-03-24T07:34:19.205Z,85.52
2018-03-24T07:36:49.106Z,85.14
2018-03-24T07:39:18.838Z,84.83
2018-03-24T07:41:47.180Z,84.58
2018-03-24T07:44:15.570Z,84.24
2018-03-24T07:46:44.561Z,84.24
2018-03-24T07:49:12.934Z,84.63
2018-03-24T07:51:42.206Z,83.93
2018-03-24T07:54:11.183Z,82.69
2018-03-24T07:56:40.276Z,82.74
2018-03-24T07:59:09.411Z,82.55
2018-03-24T08:01:38.575Z,82.15
2018-03-24T08:04:07.943Z,81.93
2018-03-24T08:06:36.363Z,81.70
2018-03-24T08:09:05.572Z,81.06
2018-03-24T08:11:34.810Z,79.63
2018-03-24T08:14:05.008Z,79.74
2018-03-24T08:16:33.959Z,80.59
2018-03-24T08:19:04.218Z,79.18
2018-03-24T08:21:33.911Z,78.06
2018-03-24T08:24:02.311Z,76.54
2018-03-24T08:26:32.910Z,77.18
2018-03-24T08:29:01.648Z,75.66
2018-03-24T08:31:30.129Z,75.43
2018-03-24T08:33:58.530Z,73.77
2018-03-24T08:36:27.760Z,69.82
2018-03-24T08:38:58.555Z,69.26
2018-03-24T08:41:27.465Z,69.78
2018-03-24T08:43:58.119Z,68.58
2018-03-24T08:46:26.533Z,67.60
2018-03-24T08:48:55.993Z,67.09
2018-03-24T08:51:24.327Z,66.66
2018-03-24T08:53:52.948Z,66.80
2018-03-24T08:56:21.317Z,66.53
2018-03-24T08:58:51.135Z,60.51
2018-03-24T09:01:19.669Z,57.48
2018-03-24T09:03:49.299Z,57.07
2018-03-24T09:06:17.957Z,55.99
2018-03-24T09:08:48.804Z,57.86
2018-03-24T09:11:17.234Z,57.76
2018-03-24T09:13:45.563Z,57.26
2018-03-24T09:16:14.800Z,57.50
2018-03-24T09:18:44.072Z,56.29
2018-03-24T09:21:13.138Z,53.88
2018-03-24T09:23:42.286Z,54.70
2018-03-24T09:26:11.743Z,53.42
2018-03-24T09:28:40.980Z,53.88
2018-03-24T09:31:09.379Z,52.55
2018-03-24T09:33:38.531Z,51.69
2018-03-24T09:36:06.957Z,50.46
2018-03-24T09:38:36.731Z,50.62
2018-03-24T09:41:05.195Z,51.18
2018-03-24T09:43:33.528Z,51.05
2018-03-24T09:46:01.901Z,49.08
2018-03-24T09:48:30.228Z,50.05
2018-03-24T09:50:59.886Z,48.62
2018-03-24T09:53:28.473Z,48.24
2018-03-24T09:55:58.315Z,48.86
2018-03-24T09:58:29.405Z,48.50
2018-03-24T10:00:59.585Z,48.32
2018-03-24T10:03:28.004Z,48.31
2018-03-24T10:05:56.406Z,49.22
2018-03-24T10:08:26.394Z,48.82
2018-03-24T10:10:56.260Z,47.79
2018-03-24T10:13:25.938Z,47.19
2018-03-24T10:15:54.604Z,47.91
2018-03-24T10:18:22.982Z,46.92
2018-03-24T10:24:23.611Z,45.61
2018-03-24T10:26:52.540Z,46.85
2018-03-24T10:29:21.623Z,45.56
2018-03-24T10:31:52.425Z,45.33
2018-03-24T10:34:21.967Z,47.03
2018-03-24T10:36:52.546Z,46.13
2018-03-24T10:39:21.111Z,45.69
2018-03-24T10:41:50.383Z,45.78
2018-03-24T10:44:19.647Z,45.48
2018-03-24T10:46:48.765Z,44.37
2018-03-24T10:49:17.512Z,45.35
2018-03-24T10:51:46.723Z,45.48
2018-03-24T10:54:16.003Z,43.72
2018-03-24T10:56:44.964Z,44.14
2018-03-24T10:59:16.415Z,43.91
2018-03-24T11:01:45.614Z,44.01
2018-03-24T11:04:15.393Z,44.10
2018-03-24T11:06:43.816Z,43.54
2018-03-24T11:09:13.115Z,44.30
2018-03-24T11:11:41.473Z,43.29
2018-03-24T11:14:10.503Z,41.51
2018-03-24T11:16:40.924Z,42.96
2018-03-24T11:19:09.303Z,41.45
2018-03-24T11:21:37.678Z,39.96
2018-03-24T11:24:06.687Z,41.94
2018-03-24T11:26:36.021Z,41.41
2018-03-24T11:29:05.704Z,42.35
2018-03-24T11:31:34.592Z,43.06
2018-03-24T11:34:06.249Z,42.82
2018-03-24T11:36:36.020Z,43.40
2018-03-24T11:39:08.159Z,43.66
2018-03-24T11:41:39.056Z,44.38
2018-03-24T11:44:07.405Z,43.89
2018-03-24T11:46:35.817Z,44.03
2018-03-24T11:49:04.942Z,43.83
2018-03-24T11:51:34.083Z,42.73
2018-03-24T11:54:03.211Z,43.18
2018-03-24T11:56:36.277Z,44.51
2018-03-24T11:59:06.383Z,43.90
2018-03-24T12:01:35.108Z,44.11
2018-03-24T12:04:03.555Z,44.37
2018-03-24T12:06:31.975Z,41.69
2018-03-24T12:09:01.166Z,41.56
2018-03-24T12:11:31.183Z,40.91
2018-03-24T12:13:59.891Z,41.30
2018-03-24T12:16:30.022Z,41.32
2018-03-24T12:18:59.220Z,41.56
2018-03-24T12:21:27.583Z,41.26
2018-03-24T12:23:55.972Z,40.96
2018-03-24T12:26:28.205Z,40.66
2018-03-24T12:28:57.326Z,38.81
2018-03-24T12:31:26.432Z,39.30
2018-03-24T12:33:59.437Z,40.09
2018-03-24T12:36:28.668Z,40.34
2018-03-24T12:38:58.491Z,41.03
2018-03-24T12:41:28.418Z,41.15
2018-03-24T12:43:57.498Z,40.52
2018-03-24T12:46:25.867Z,39.45
2018-03-24T12:48:54.845Z,39.17
2018-03-24T12:51:24.143Z,38.16
2018-03-24T12:53:52.442Z,37.78
2018-03-24T12:56:21.216Z,36.99
2018-03-24T12:58:50.488Z,36.32
2018-03-24T13:01:18.883Z,37.40
2018-03-24T13:03:47.234Z,37.17
2018-03-24T13:06:15.655Z,36.17
2018-03-24T13:08:43.993Z,35.38
2018-03-24T13:11:12.841Z,35.54
2018-03-24T13:13:41.317Z,34.54
2018-03-24T13:16:10.002Z,34.70
2018-03-24T13:18:38.341Z,34.42
2018-03-24T13:21:07.583Z,36.63
2018-03-24T13:23:36.059Z,35.75
2018-03-24T13:26:04.440Z,35.13
2018-03-24T13:28:33.019Z,33.92
2018-03-24T13:31:01.444Z,32.98
2018-03-24T13:33:29.780Z,31.88
2018-03-24T13:35:58.939Z,33.23
2018-03-24T13:38:29.531Z,31.78
2018-03-24T13:40:57.884Z,33.32
2018-03-24T13:43:26.554Z,34.31
2018-03-24T13:45:55.580Z,33.36
2018-03-24T13:48:24.146Z,32.79
2018-03-24T13:50:53.222Z,31.15
2018-03-24T13:53:21.583Z,31.56
2018-03-24T13:55:49.946Z,30.75
2018-03-24T13:58:18.365Z,31.25
2018-03-24T14:00:48.561Z,30.63
2018-03-24T14:03:16.914Z,31.98
2018-03-24T14:05:45.242Z,31.78
2018-03-24T14:08:13.673Z,30.91
2018-03-24T14:10:45.100Z,31.12
2018-03-24T14:13:14.610Z,31.21
2018-03-24T14:15:43.724Z,30.56
2018-03-24T14:18:13.055Z,31.04
2018-03-24T14:20:41.761Z,31.61
2018-03-24T14:23:12.946Z,31.27
2018-03-24T14:25:41.277Z,31.87
2018-03-24T14:28:12.688Z,30.12
2018-03-24T14:30:41.947Z,30.95
2018-03-24T14:33:10.320Z,30.61
2018-03-24T14:35:38.663Z,30.05
2018-03-24T14:38:07.956Z,29.70
2018-03-24T14:40:36.392Z,28.84
2018-03-24T14:43:04.764Z,29.29
2018-03-24T14:45:33.099Z,28.28
2018-03-24T14:48:02.520Z,28.55
2018-03-24T14:50:31.446Z,29.15
2018-03-24T14:52:59.846Z,29.69
2018-03-24T14:55:28.190Z,28.81
2018-03-24T14:57:57.531Z,28.29
2018-03-24T15:00:26.255Z,27.63
2018-03-24T15:02:54.726Z,28.52
2018-03-24T15:05:23.144Z,27.00
2018-03-24T15:07:52.400Z,26.56
2018-03-24T15:10:21.278Z,26.86
2018-03-24T15:12:49.688Z,26.74
2018-03-24T15:15:18.954Z,27.22
2018-03-24T15:17:47.352Z,27.88
2018-03-24T15:20:15.687Z,27.15
2018-03-24T15:22:44.132Z,27.13
2018-03-24T15:25:14.110Z,27.14
2018-03-24T15:27:42.849Z,25.86
2018-03-24T15:30:24.520Z,25.68
2018-03-24T15:32:53.841Z,26.05
2018-03-24T15:35:32.393Z,24.80
2018-03-24T15:38:01.316Z,26.34
2018-03-24T15:40:31.484Z,26.75
2018-03-24T15:42:59.867Z,27.32
2018-03-24T15:45:28.378Z,27.07
2018-03-24T15:47:56.791Z,27.46
2018-03-24T15:50:25.164Z,26.79
2018-03-24T15:52:53.616Z,26.83
2018-03-24T15:55:22.273Z,27.04
2018-03-24T15:57:51.520Z,27.44
2018-03-24T16:00:19.858Z,27.09
2018-03-24T16:02:48.228Z,27.24
2018-03-24T16:05:16.587Z,27.51
2018-03-24T16:07:45.265Z,27.74
2018-03-24T16:10:14.385Z,27.34
2018-03-24T16:12:46.599Z,26.92
2018-03-24T16:15:16.506Z,28.30
2018-03-24T16:17:44.841Z,26.25
2018-03-24T16:20:13.176Z,25.96
2018-03-24T16:22:41.556Z,25.69
2018-03-24T16:25:10.178Z,25.21
2018-03-24T16:27:39.468Z,25.53
2018-03-24T16:30:07.831Z,25.13
2018-03-24T16:32:36.199Z,24.21
2018-03-24T16:35:07.311Z,24.25
2018-03-24T16:37:36.423Z,25.18
2018-03-24T16:40:05.488Z,25.67
2018-03-24T16:42:34.026Z,25.55
2018-03-24T16:45:02.742Z,26.09
2018-03-24T16:47:31.152Z,25.90
2018-03-24T16:49:59.777Z,25.87
2018-03-24T16:52:28.196Z,26.39
2018-03-24T16:54:56.617Z,25.45
2018-03-24T16:57:26.297Z,24.79
2018-03-24T16:59:54.720Z,25.63
2018-03-24T17:02:25.175Z,26.04
2018-03-24T17:04:53.550Z,25.88
2018-03-24T17:07:23.227Z,26.73
2018-03-24T17:09:51.569Z,27.36
2018-03-24T17:12:20.387Z,26.89
2018-03-24T17:14:51.335Z,27.92
2018-03-24T17:17:24.013Z,29.13
2018-03-24T17:19:52.348Z,29.94
2018-03-24T17:22:21.247Z,30.89
2018-03-24T17:24:49.586Z,31.14
2018-03-24T17:27:18.912Z,31.39
2018-03-24T17:29:51.016Z,31.31
2018-03-24T17:32:19.391Z,32.47
2018-03-24T17:34:48.016Z,33.41
2018-03-24T17:37:17.457Z,34.23
2018-03-24T17:39:46.982Z,35.18
2018-03-24T17:42:16.156Z,35.51
2018-03-24T17:44:45.544Z,36.31
2018-03-24T17:47:14.150Z,36.20
2018-03-24T17:49:42.562Z,36.88
2018-03-24T17:52:11.740Z,37.22
2018-03-24T17:54:40.792Z,37.25
2018-03-24T17:57:09.135Z,37.90
2018-03-24T17:59:37.536Z,38.43
2018-03-24T18:02:06.561Z,38.95
2018-03-24T18:04:35.674Z,39.61
2018-03-24T18:07:04.474Z,39.34
2018-03-24T18:09:32.923Z,40.00
2018-03-24T18:12:02.327Z,40.05
2018-03-24T18:14:32.033Z,40.50
2018-03-24T18:17:00.927Z,43.01
2018-03-24T18:19:30.496Z,44.69
2018-03-24T18:21:58.809Z,46.54
2018-03-24T18:24:28.043Z,45.67
2018-03-24T18:26:57.538Z,45.23
2018-03-24T18:29:27.449Z,45.70
2018-03-24T18:31:56.582Z,45.62
2018-03-24T18:34:25.246Z,44.99
2018-03-24T18:36:55.324Z,44.57
2018-03-24T18:39:24.559Z,44.65
2018-03-24T18:41:53.860Z,45.62
2018-03-24T18:44:23.237Z,46.86
2018-03-24T18:46:52.550Z,47.12
2018-03-24T18:49:21.185Z,46.04
2018-03-24T18:51:49.521Z,46.97
2018-03-24T18:54:18.292Z,48.64
2018-03-24T18:56:48.153Z,48.49
2018-03-24T18:59:17.544Z,49.48
2018-03-24T19:01:47.634Z,49.05
2018-03-24T19:04:16.072Z,49.61
2018-03-24T19:06:44.458Z,49.49
2018-03-24T19:09:13.633Z,49.93
2018-03-24T19:11:42.775Z,50.40
2018-03-24T19:14:11.840Z,50.17
2018-03-24T19:16:40.551Z,49.59
2018-03-24T19:19:09.707Z,50.35
2018-03-24T19:21:38.081Z,50.08
2018-03-24T19:24:06.815Z,50.28
2018-03-24T19:26:35.167Z,50.18
2018-03-24T19:29:03.650Z,50.58
2018-03-24T19:31:32.441Z,50.49
2018-03-24T19:34:00.779Z,52.05
2018-03-24T19:36:29.198Z,52.68
2018-03-24T19:38:58.487Z,52.89
2018-03-24T19:41:26.955Z,53.24
2018-03-24T19:43:55.310Z,53.49
2018-03-24T19:46:23.722Z,53.41
2018-03-24T19:48:53.002Z,52.80
2018-03-24T19:51:22.098Z,53.18
2018-03-24T19:53:51.388Z,54.05
2018-03-24T19:56:21.525Z,53.73
2018-03-24T19:58:49.901Z,54.12
2018-03-24T20:01:22.085Z,53.99
2018-03-24T20:03:52.357Z,54.02
2018-03-24T20:06:20.735Z,54.68
2018-03-24T20:08:49.464Z,54.16
2018-03-24T20:11:17.808Z,54.66
2018-03-24T20:13:46.227Z,54.67
2018-03-24T20:16:14.560Z,55.43
2018-03-24T20:18:43.086Z,54.65
2018-03-24T20:21:13.826Z,54.92
2018-03-24T20:23:43.366Z,55.23
2018-03-24T20:26:11.727Z,55.41
2018-03-24T20:28:41.596Z,55.94
2018-03-24T20:31:09.939Z,55.88
2018-03-24T20:33:38.806Z,55.60
2018-03-24T20:36:07.139Z,56.19
2018-03-24T20:38:35.561Z,55.84
2018-03-24T20:41:04.944Z,56.15
2018-03-24T20:43:33.319Z,55.59
2018-03-24T20:46:01.768Z,56.37
2018-03-24T20:48:30.334Z,57.12
2018-03-24T20:50:59.343Z,56.73
2018-03-24T20:53:27.711Z,56.89
2018-03-24T20:55:57.046Z,56.85
2018-03-24T20:58:25.655Z,56.25
2018-03-24T21:00:55.536Z,56.60
2018-03-24T21:03:25.506Z,56.58
2018-03-24T21:05:55.574Z,56.36
2018-03-24T21:08:24.017Z,56.73
2018-03-24T21:10:52.904Z,57.69
2018-03-24T21:13:22.164Z,58.23
2018-03-24T21:15:50.513Z,58.66
2018-03-24T21:18:20.249Z,59.33
2018-03-24T21:20:49.535Z,58.42
2018-03-24T21:23:18.810Z,58.47
2018-03-24T21:25:47.407Z,59.24
2018-03-24T21:28:15.753Z,60.01
2018-03-24T21:30:44.166Z,60.83
2018-03-24T21:33:13.352Z,59.82
2018-03-24T21:35:41.712Z,60.21
2018-03-24T21:38:10.781Z,60.30
2018-03-24T21:40:39.437Z,60.12
2018-03-24T21:43:07.766Z,60.06
2018-03-24T21:45:36.575Z,60.22
2018-03-24T21:48:04.907Z,60.38
2018-03-24T21:50:33.293Z,60.83
2018-03-24T21:53:01.616Z,60.52
2018-03-24T21:55:30.900Z,60.31
2018-03-24T21:58:01.292Z,61.17
2018-03-24T22:00:31.203Z,61.41
2018-03-24T22:03:00.526Z,61.19
2018-03-24T22:05:30.659Z,61.15
2018-03-24T22:07:58.989Z,61.42
2018-03-24T22:10:27.723Z,61.40
2018-03-24T22:12:56.099Z,61.53
2018-03-24T22:15:24.708Z,61.44
2018-03-24T22:17:53.900Z,61.91
2018-03-24T22:20:23.501Z,61.98
2018-03-24T22:22:56.451Z,62.45
2018-03-24T22:25:25.526Z,62.03
2018-03-24T22:27:54.766Z,61.87
2018-03-24T22:30:23.538Z,62.32
2018-03-24T22:32:53.631Z,62.47
2018-03-24T22:35:22.669Z,63.44
2018-03-24T22:37:52.405Z,62.94
2018-03-24T22:40:22.186Z,62.99
2018-03-24T22:42:50.516Z,63.03
2018-03-24T22:45:18.987Z,63.13
2018-03-24T22:47:48.589Z,63.06
2018-03-24T22:50:16.943Z,63.47
2018-03-24T22:52:46.139Z,63.55
2018-03-24T22:55:14.515Z,63.87
2018-03-24T22:57:42.849Z,63.76
2018-03-24T23:00:12.448Z,63.74
2018-03-24T23:02:41.784Z,64.09
2018-03-24T23:05:11.028Z,64.26
2018-03-24T23:07:40.066Z,64.11
2018-03-24T23:10:10.141Z,64.17
2018-03-24T23:12:39.085Z,64.33
2018-03-24T23:15:07.466Z,64.82
2018-03-24T23:17:35.878Z,65.14
2018-03-24T23:20:04.292Z,65.59
2018-03-24T23:22:32.645Z,65.72
2018-03-24T23:25:02.821Z,65.18
2018-03-24T23:27:32.627Z,65.30
2018-03-24T23:30:00.959Z,64.88
2018-03-24T23:32:30.231Z,65.86
2018-03-24T23:34:58.559Z,65.82
2018-03-24T23:37:27.013Z,65.83
2018-03-24T23:39:56.721Z,66.07
2018-03-24T23:42:27.359Z,66.37
2018-03-24T23:44:56.511Z,65.81
2018-03-24T23:47:24.911Z,65.61
2018-03-24T23:49:54.178Z,65.71
2018-03-24T23:52:23.426Z,65.89
2018-03-24T23:54:52.171Z,66.34
2018-03-24T23:57:20.553Z,66.67
2018-03-24T23:59:48.879Z,66.94
